Berberati Airport Berberati CF
ICAO: FEFT
IATA: BBT
Category: Medium
Scheduled Services: No

Elevation: 1929 ft
TransAlt. 0 ft.

Airport Communications:
AFIS:118.7

FEFT Zoom In..

If you have problems with the map follow the link
https://www.worldairports.se/pages/airport.php?
ICAO=FEFT

Runways:

Location; FEFT
Day. 21 / Time. 10.00 Zulu
* QNH: 1014
* Temperature: 29° c. 84.2°f.
* Wind from: 040° Speed 12 kn.
Dewpoint: 09° c.
Visibility: 10 km or more,
No clouds below 1,500 m.
No cumulonimbus, and no significant weather
fenomena in the aerodrome or its vicinity.

FEFT 211000Z 04012KT CAVOK 29/09 Q1014


Wind From 040°
Speed 12 kn.

 
 
jpsmedia worldairports.se 2020   terms of use